CheckWX is a tool to help pilots better visualize weather data.  It is not intended as a substitute for an official pre-flight weather briefing.

05:13:43 UTC

EGPB METAR
Sumburgh Airport
Lerwick, United Kingdom
Current

24 mins ago

EGPB 240450Z AUTO 25017KT 8000 BKN028/// 08/06 Q1031
Observed
Feb-24 @ 04:50 UTC
Wind
  • 250° at 17 KTS
Visibility
7,998 meters
Flight Rules
MVFR
Cloud Levels
  • Broken at 2,800' AGL
Temperature
C / 46°F
Dewpoint
C / 43°F
Humidity
87%
Altimeter
30.44" Hg
Pressure
1030.91 hPa
Previous

54 mins ago

EGPB 240420Z AUTO 25017KT 9000 SCT021/// SCT036/// 08/06 Q1031
Observed
Feb-24 @ 04:20 UTC
Wind
  • 250° at 17 KTS
Visibility
8,996 meters
Flight Rules
VFR
Cloud Levels
  • Scattered at 2,100' AGL
  • Scattered at 3,600' AGL
Temperature
C / 46°F
Dewpoint
C / 43°F
Humidity
87%
Altimeter
30.44" Hg
Pressure
1030.91 hPa
Previous

1 hour ago

EGPB 240350Z AUTO 25017KT 9999 NCD 08/06 Q1030
Observed
Feb-24 @ 03:50 UTC
Wind
  • 250° at 17 KTS
Visibility
10,000+ meters
Flight Rules
VFR
Cloud Levels
  • Clear skies
Temperature
C / 46°F
Dewpoint
C / 43°F
Humidity
87%
Altimeter
30.41" Hg
Pressure
1029.91 hPa